Disclaimer

Please do not use the information listed here in-flight or in-navigation, as they are not provided to us by the airports but are provided by volunteers, so they might be outdated.

Search


Regions


Airport information page

Radio informations:
INFO - 123.15 MHz

Airport informations:
Latitude: 55° 40' 55.00" N
Longitude: 006° 15' 24.00" W
Elevation: 56 feet - 17 meters
Operating hours: Remarks
Operating agency: Civil government, landing fees and diplomatic clearance may be required
Timezone: UTC 0(+1DT) - Last Sunday in March to last Sunday in October
Fuel: N/A

Runway information:
08/26 - 2083 x 59 feet< - >635 x 18 meters
13/31 - 5069 x 151 feet< - >1545 x 46 meters

Recent METARs:
EGPI 180920Z AUTO 07012KT 030V100 9999 NCD 09/04 Q1030
EGPI 180950Z AUTO 08007KT 040V150 9999 NCD 10/04 Q1030
EGPI 181020Z AUTO 12014KT 080V140 9999 NCD 11/03 Q1030

Airport on the map: